Time;durP1;ratioP1;P1;durP2;ratioP2;P2;SDS_P1;SDS_P2;PMS_P1;PMS_P2;Temp;Humidity;BMP_temperature;BMP_pressure;BME280_temperature;BME280_humidity;BME280_pressure;Samples;Min_cycle;Max_cycle;Signal;HPM_P1;HPM_P2
2022/09/01 00:01:14;;;;;;;3.20;1.40;;;;;;;17.73;54.03;100762.81;5053947;28;20057;-58
2022/09/01 00:03:42;;;;;;;2.60;1.50;;;;;;;17.71;54.29;100762.34;5053601;28;20060;-58
2022/09/01 00:06:10;;;;;;;1.95;1.40;;;;;;;17.68;54.32;100769.50;5053657;28;20065;-58
2022/09/01 00:08:37;;;;;;;2.53;1.60;;;;;;;17.72;54.40;100770.41;5068461;28;20052;-58
2022/09/01 00:11:06;;;;;;;2.83;1.50;;;;;;;17.69;54.55;100762.69;5065747;28;20512;-58
2022/09/01 00:13:33;;;;;;;2.37;1.40;;;;;;;17.74;54.54;100762.44;5053638;28;20057;-58
2022/09/01 00:16:02;;;;;;;3.40;1.40;;;;;;;17.78;54.53;100757.72;5053309;28;20516;-58
2022/09/01 00:18:31;;;;;;;3.38;1.60;;;;;;;17.74;54.41;100759.59;5054905;28;20052;-58
2022/09/01 00:20:59;;;;;;;2.97;1.30;;;;;;;17.70;54.37;100764.34;5069357;28;20056;-58
2022/09/01 00:23:27;;;;;;;3.15;1.70;;;;;;;17.64;54.54;100755.31;5052560;28;20057;-58
2022/09/01 00:25:54;;;;;;;3.17;1.55;;;;;;;17.62;54.91;100754.84;5053121;28;20053;-58
2022/09/01 00:28:23;;;;;;;3.00;1.42;;;;;;;17.59;54.99;100758.34;5053343;28;20052;-58
2022/09/01 00:30:50;;;;;;;6.47;1.73;;;;;;;17.52;55.05;100757.34;5053119;28;20049;-58
2022/09/01 00:33:18;;;;;;;2.88;1.40;;;;;;;17.45;55.31;100755.13;5059419;28;20052;-58
2022/09/01 00:35:45;;;;;;;2.58;1.60;;;;;;;17.39;55.33;100762.97;5072799;28;20056;-58
2022/09/01 00:38:12;;;;;;;3.17;1.60;;;;;;;17.32;55.38;100765.56;5054722;28;20055;-58
2022/09/01 00:40:40;;;;;;;2.00;1.50;;;;;;;17.22;55.65;100769.69;5052658;28;20533;-58
2022/09/01 00:43:16;;;;;;;2.83;1.80;;;;;;;17.16;55.96;100765.47;5052741;28;20391;-58
2022/09/01 00:45:45;;;;;;;3.08;1.67;;;;;;;17.11;56.10;100764.88;5052922;28;20064;-58
2022/09/01 00:48:13;;;;;;;2.83;1.50;;;;;;;17.02;56.24;100757.34;5066393;28;20485;-58
2022/09/01 00:50:42;;;;;;;4.95;1.80;;;;;;;16.93;56.56;100767.91;5072701;28;20060;-58
2022/09/01 00:53:10;;;;;;;6.17;1.87;;;;;;;16.91;56.33;100756.19;5059437;28;20393;-59
2022/09/01 00:55:38;;;;;;;3.53;1.80;;;;;;;16.87;56.43;100760.06;5052933;28;20056;-58
2022/09/01 00:58:07;;;;;;;3.58;1.55;;;;;;;16.81;56.57;100759.47;5052576;28;20053;-58
2022/09/01 01:00:40;;;;;;;3.35;1.50;;;;;;;16.75;56.65;100747.56;5051841;28;20057;-59
2022/09/01 01:03:11;;;;;;;4.63;1.90;;;;;;;16.68;56.71;100760.59;5042752;28;20386;-58
2022/09/01 01:05:45;;;;;;;3.53;1.63;;;;;;;16.62;56.68;100751.53;5052289;28;20049;-60
2022/09/01 01:08:12;;;;;;;3.90;1.90;;;;;;;16.54;57.04;100756.09;5052619;28;20059;-58
2022/09/01 01:10:42;;;;;;;3.58;1.80;;;;;;;16.45;57.21;100758.19;5051790;28;20053;-58
2022/09/01 01:13:11;;;;;;;2.15;1.73;;;;;;;16.38;57.06;100752.31;5052257;28;20052;-59
2022/09/01 01:15:42;;;;;;;;;;;;;;;16.26;57.54;100749.47;5052637;28;20075;-60
2022/09/01 01:18:11;;;;;;;2.00;1.40;;;;;;;16.24;57.70;100753.44;5054249;28;19928;-58
2022/09/01 01:23:35;;;;;;;3.55;1.70;;;;;;;16.13;57.99;100754.22;5051991;28;20433;-59
2022/09/01 01:26:08;;;;;;;2.45;1.70;;;;;;;16.06;58.24;100760.38;5052002;28;20056;-58
2022/09/01 01:28:38;;;;;;;3.60;1.65;;;;;;;15.99;58.50;100755.31;5052199;28;20410;-58
2022/09/01 01:31:11;;;;;;;3.90;1.98;;;;;;;15.95;58.69;100756.34;5056625;28;20044;-59
2022/09/01 01:33:43;;;;;;;3.70;1.60;;;;;;;15.91;58.84;100766.63;5058505;28;20052;-58
2022/09/01 01:36:14;;;;;;;2.65;1.50;;;;;;;15.86;59.01;100761.25;5052159;28;20060;-58
2022/09/01 01:38:45;;;;;;;1.90;1.60;;;;;;;15.78;59.10;100768.56;5051905;28;20037;-59
2022/09/01 01:41:16;;;;;;;2.20;1.70;;;;;;;15.68;59.78;100764.13;5052050;28;20056;-58
2022/09/01 01:43:44;;;;;;;4.22;1.83;;;;;;;15.62;59.62;100765.50;5051778;28;20056;-59
2022/09/01 01:46:13;;;;;;;2.90;1.85;;;;;;;15.60;59.91;100765.88;5050060;28;20064;-59
2022/09/01 01:48:42;;;;;;;2.25;1.60;;;;;;;15.57;59.82;100762.91;5034212;28;20054;-58
2022/09/01 01:51:12;;;;;;;3.08;1.73;;;;;;;15.48;60.17;100767.78;5052418;28;20057;-58
2022/09/01 01:53:40;;;;;;;2.70;2.13;;;;;;;15.43;60.24;100769.63;5052077;28;20398;-59
2022/09/01 01:56:09;;;;;;;3.45;1.77;;;;;;;15.39;60.18;100776.22;5052259;28;20406;-59
2022/09/01 01:58:39;;;;;;;3.10;2.10;;;;;;;15.36;60.08;100772.13;5051903;28;20055;-58
2022/09/01 02:01:10;;;;;;;3.13;1.80;;;;;;;15.29;60.45;100780.25;5056087;28;20053;-59
2022/09/01 02:03:38;;;;;;;4.03;1.70;;;;;;;15.21;60.64;100772.72;5071950;28;20049;-58
2022/09/01 02:06:08;;;;;;;3.13;1.52;;;;;;;15.20;60.72;100771.91;5053571;28;20425;-58
2022/09/01 02:08:37;;;;;;;2.22;1.77;;;;;;;15.16;60.66;100778.50;5052418;28;20056;-64
2022/09/01 02:11:06;;;;;;;2.55;1.67;;;;;;;15.11;60.89;100778.72;5051690;28;20053;-65
2022/09/01 02:13:34;;;;;;;3.63;1.98;;;;;;;15.04;60.95;100772.81;5051947;28;20056;-64
2022/09/01 02:16:11;;;;;;;3.97;2.15;;;;;;;15.01;61.00;100769.53;5048649;28;20055;-63
2022/09/01 02:18:41;;;;;;;4.97;1.70;;;;;;;14.98;61.02;100775.78;5066647;28;20052;-58
2022/09/01 02:21:12;;;;;;;3.97;1.80;;;;;;;14.95;61.03;100775.63;5057456;28;20053;-58
2022/09/01 02:23:40;;;;;;;5.53;1.80;;;;;;;14.93;61.37;100775.16;5053021;28;20049;-58
2022/09/01 02:26:09;;;;;;;3.38;2.15;;;;;;;14.93;61.01;100772.34;5055612;28;20057;-58
2022/09/01 02:28:41;;;;;;;2.53;1.90;;;;;;;14.92;61.16;100771.53;5055697;28;20053;-58
2022/09/01 02:31:10;;;;;;;3.40;2.10;;;;;;;14.90;61.05;100775.84;5054384;28;20053;-58
2022/09/01 02:33:39;;;;;;;6.57;2.20;;;;;;;14.87;61.40;100777.34;5055314;28;20041;-58
2022/09/01 02:36:11;;;;;;;4.60;2.22;;;;;;;14.79;61.95;100778.19;5054745;28;20127;-58
2022/09/01 02:38:43;;;;;;;3.20;1.80;;;;;;;14.78;61.88;100773.72;5055556;28;20515;-58
2022/09/01 02:41:11;;;;;;;2.00;1.65;;;;;;;14.79;62.10;100766.97;5054939;28;20060;-58
2022/09/01 02:43:39;;;;;;;3.75;1.95;;;;;;;14.79;61.88;100770.59;5055268;28;20052;-58
2022/09/01 02:46:06;;;;;;;2.47;1.80;;;;;;;14.79;61.95;100767.78;5063524;28;20049;-58
2022/09/01 02:48:37;;;;;;;2.92;1.85;;;;;;;14.81;61.67;100770.25;5055293;28;20053;-57
2022/09/01 02:51:06;;;;;;;2.78;1.83;;;;;;;14.81;61.57;100770.25;5054843;28;20577;-59
2022/09/01 02:53:34;;;;;;;3.97;2.22;;;;;;;14.82;62.22;100777.50;5055179;28;20060;-59
2022/09/01 02:56:03;;;;;;;4.05;2.00;;;;;;;14.82;61.75;100772.75;5054305;28;20413;-58
2022/09/01 02:58:41;;;;;;;6.00;2.10;;;;;;;14.80;62.13;100774.22;5054134;28;20402;-58
2022/09/01 03:01:13;;;;;;;5.00;1.98;;;;;;;14.78;62.22;100765.31;5053522;28;20052;-59
2022/09/01 03:03:42;;;;;;;2.70;1.92;;;;;;;14.82;61.79;100766.28;5059351;28;20041;-60
2022/09/01 03:06:11;;;;;;;2.23;1.80;;;;;;;14.78;61.91;100766.16;5073162;28;20064;-59
2022/09/01 03:08:39;;;;;;;3.70;2.33;;;;;;;14.80;61.76;100763.00;5055038;28;20060;-60
2022/09/01 03:11:09;;;;;;;3.60;1.88;;;;;;;14.81;61.79;100761.84;5054331;28;20061;-60
2022/09/01 03:13:39;;;;;;;3.72;1.90;;;;;;;14.81;62.20;100770.25;5054512;28;20064;-60
2022/09/01 03:16:07;;;;;;;2.72;2.05;;;;;;;14.76;62.05;100767.63;5059032;28;20052;-60
2022/09/01 03:18:35;;;;;;;2.67;1.90;;;;;;;14.77;62.17;100772.09;5064169;28;20049;-60
2022/09/01 03:21:05;;;;;;;2.47;2.08;;;;;;;14.74;61.88;100767.13;5074429;28;20056;-60
2022/09/01 03:23:32;;;;;;;4.43;2.00;;;;;;;14.69;61.83;100767.34;5057391;28;20045;-60
2022/09/01 03:26:00;;;;;;;3.15;2.08;;;;;;;14.65;61.95;100783.19;5054401;28;20060;-59
2022/09/01 03:28:29;;;;;;;3.28;2.60;;;;;;;14.63;62.11;100775.09;5053806;28;20049;-59
2022/09/01 03:30:58;;;;;;;2.83;2.00;;;;;;;14.64;62.26;100773.13;5053425;28;20053;-59
2022/09/01 03:33:27;;;;;;;2.72;2.10;;;;;;;14.64;62.06;100776.75;5053586;28;20414;-60
2022/09/01 03:35:55;;;;;;;4.63;2.25;;;;;;;14.60;62.18;100773.78;5053644;28;20075;-60
2022/09/01 03:38:25;;;;;;;2.88;2.22;;;;;;;14.52;62.47;100774.59;5054106;28;20437;-60
2022/09/01 03:40:57;;;;;;;2.85;2.05;;;;;;;14.53;62.23;100781.03;5053738;28;20061;-59
2022/09/01 03:43:26;;;;;;;3.45;2.25;;;;;;;14.54;62.06;100777.06;5053497;28;20068;-60
2022/09/01 03:45:55;;;;;;;3.47;2.37;;;;;;;14.46;62.49;100778.72;5071146;28;20048;-59
2022/09/01 03:48:25;;;;;;;4.78;2.33;;;;;;;14.39;62.12;100770.84;5065108;28;20494;-60
2022/09/01 03:50:52;;;;;;;5.72;2.40;;;;;;;14.38;62.37;100771.16;5053939;28;20049;-60
2022/09/01 03:53:23;;;;;;;4.65;2.40;;;;;;;14.37;62.85;100769.53;5053606;28;20482;-58
2022/09/01 03:55:53;;;;;;;3.95;2.70;;;;;;;14.36;62.38;100760.31;5053641;28;20053;-60
2022/09/01 03:58:21;;;;;;;3.20;2.10;;;;;;;14.29;62.39;100768.38;5053320;28;20059;-60
2022/09/01 04:00:54;;;;;;;3.50;2.25;;;;;;;14.28;62.44;100768.72;5053793;28;20068;-60
2022/09/01 04:03:23;;;;;;;3.95;2.10;;;;;;;14.27;62.56;100773.50;5053696;28;20049;-60
2022/09/01 04:05:52;;;;;;;3.80;2.47;;;;;;;14.26;62.55;100771.03;5053859;28;20045;-60
2022/09/01 04:08:21;;;;;;;5.25;2.72;;;;;;;14.21;62.50;100770.06;5053600;28;20139;-60
2022/09/01 04:10:50;;;;;;;;;;;;;;;14.15;63.20;100765.78;5055314;28;20405;-61
2022/09/01 04:13:20;;;;;;;4.10;2.88;;;;;;;14.13;62.83;100768.09;5064170;28;19927;-59
2022/09/01 04:15:48;;;;;;;4.57;2.47;;;;;;;14.09;63.38;100772.72;5053315;28;20144;-60
2022/09/01 04:18:19;;;;;;;4.57;2.78;;;;;;;14.12;63.30;100777.63;5053381;28;20060;-60
2022/09/01 04:20:48;;;;;;;3.75;2.60;;;;;;;14.09;63.21;100774.66;5053519;28;20512;-60
2022/09/01 04:23:24;;;;;;;;;;;;;;;14.01;63.32;100781.94;5053567;28;20056;-60
2022/09/01 04:25:55;;;;;;;5.47;2.40;;;;;;;13.95;63.05;100777.66;5053175;28;19921;-61
2022/09/01 04:28:25;;;;;;;3.95;2.17;;;;;;;13.92;62.72;100767.09;5069476;28;20477;-60
2022/09/01 04:30:55;;;;;;;3.42;2.50;;;;;;;13.91;63.04;100768.28;5054604;28;20060;-61
2022/09/01 04:33:24;;;;;;;2.92;2.17;;;;;;;13.89;62.94;100764.97;5053254;28;20084;-60
2022/09/01 04:35:53;;;;;;;3.42;2.42;;;;;;;13.89;63.18;100770.56;5052769;28;20053;-60
2022/09/01 04:38:22;;;;;;;3.20;2.08;;;;;;;13.85;63.12;100767.59;5053148;28;20057;-60
2022/09/01 04:40:49;;;;;;;5.35;3.20;;;;;;;13.73;63.72;100764.63;5052889;28;20052;-60
2022/09/01 04:43:17;;;;;;;3.53;2.80;;;;;;;13.75;63.69;100768.78;5051959;28;20056;-58
2022/09/01 04:45:50;;;;;;;3.67;2.60;;;;;;;13.74;63.32;100769.09;5051886;28;20060;-60
2022/09/01 04:48:20;;;;;;;3.50;2.67;;;;;;;13.73;63.57;100776.69;5052901;28;20048;-60
2022/09/01 04:50:50;;;;;;;4.13;2.65;;;;;;;13.72;63.71;100769.41;5052687;28;20055;-60
2022/09/01 04:53:19;;;;;;;3.70;2.30;;;;;;;13.73;63.75;100768.28;5052950;28;20490;-60
2022/09/01 04:55:47;;;;;;;4.82;2.78;;;;;;;13.71;63.51;100770.59;5051873;28;20056;-57
2022/09/01 04:58:16;;;;;;;4.90;2.55;;;;;;;13.71;63.65;100767.78;5072511;28;20053;-60
2022/09/01 05:00:46;;;;;;;3.13;2.45;;;;;;;13.75;63.44;100770.72;5063888;28;20424;-60
2022/09/01 05:03:15;;;;;;;5.75;2.83;;;;;;;13.72;63.61;100775.00;5052034;28;20417;-59
2022/09/01 05:05:45;;;;;;;5.80;2.95;;;;;;;13.74;63.52;100778.31;5052148;28;20049;-60
2022/09/01 05:08:14;;;;;;;6.07;2.95;;;;;;;13.76;63.83;100769.59;5052431;28;20478;-59
2022/09/01 05:10:44;;;;;;;5.18;3.28;;;;;;;13.74;63.86;100769.91;5050935;28;20049;-60
2022/09/01 05:13:16;;;;;;;4.15;2.83;;;;;;;13.77;63.89;100771.22;5060992;28;20432;-59
2022/09/01 05:15:46;;;;;;;3.72;2.67;;;;;;;13.83;63.42;100774.69;5068109;28;20053;-60
2022/09/01 05:18:22;;;;;;;4.55;3.00;;;;;;;13.83;63.61;100771.88;5051908;28;20072;-60
2022/09/01 05:20:52;;;;;;;3.42;2.45;;;;;;;13.86;63.39;100776.81;5050128;28;20056;-60
2022/09/01 05:23:22;;;;;;;3.97;2.78;;;;;;;13.88;63.65;100775.34;5062432;28;20055;-60
2022/09/01 05:25:53;;;;;;;5.63;3.00;;;;;;;13.87;63.86;100768.09;5061997;28;20059;-61
2022/09/01 05:28:24;;;;;;;4.13;2.45;;;;;;;13.89;63.34;100767.78;5048798;28;20049;-60
2022/09/01 05:30:53;;;;;;;3.78;2.78;;;;;;;13.91;63.74;100774.69;5060180;28;20055;-59
2022/09/01 05:33:22;;;;;;;5.18;2.80;;;;;;;13.86;64.11;100768.41;5055005;28;20052;-59
2022/09/01 05:35:55;;;;;;;4.82;2.83;;;;;;;13.74;64.80;100778.31;5052602;28;20053;-60
2022/09/01 05:38:24;;;;;;;3.72;2.60;;;;;;;13.71;64.81;100776.19;5031981;28;20057;-60
2022/09/01 05:41:00;;;;;;;3.13;2.50;;;;;;;13.81;64.86;100781.44;5041109;28;20049;-60
2022/09/01 05:43:29;;;;;;;4.38;3.03;;;;;;;13.92;64.65;100779.16;5048672;28;20061;-60
2022/09/01 05:45:57;;;;;;;6.03;3.10;;;;;;;13.86;64.52;100779.63;5049460;28;20064;-59
2022/09/01 05:48:29;;;;;;;3.78;2.92;;;;;;;13.67;65.46;100772.38;5057842;28;20067;-59
2022/09/01 05:50:58;;;;;;;4.45;2.97;;;;;;;14.02;64.47;100783.56;5063151;28;20110;-59
2022/09/01 05:53:29;;;;;;;14.75;3.95;;;;;;;14.09;64.54;100778.31;5050198;28;20067;-59
2022/09/01 05:55:57;;;;;;;5.18;3.10;;;;;;;14.38;63.58;100779.56;5047577;28;20057;-60
2022/09/01 05:58:28;;;;;;;5.90;3.10;;;;;;;14.53;62.93;100781.03;5067271;28;20067;-60
2022/09/01 06:00:57;;;;;;;4.05;2.83;;;;;;;14.68;62.40;100786.16;5075165;28;20381;-61
2022/09/01 06:03:27;;;;;;;6.70;3.50;;;;;;;14.78;62.25;100784.94;5061733;28;20072;-62
2022/09/01 06:05:57;;;;;;;;;;;;;;;14.86;62.19;100783.28;5056177;28;20409;-60
2022/09/01 06:08:27;;;;;;;;;;;;;;;14.93;62.14;100773.19;5056059;28;20371;-60
2022/09/01 06:10:55;;;;;;;4.70;3.17;;;;;;;15.05;61.57;100780.06;5068509;28;19924;-61
2022/09/01 06:13:22;;;;;;;5.13;3.50;;;;;;;15.16;61.13;100781.31;5064338;28;20048;-60
2022/09/01 06:15:52;;;;;;;5.88;3.70;;;;;;;15.16;61.01;100779.34;5060710;28;20044;-60
2022/09/01 06:18:22;;;;;;;6.65;3.70;;;;;;;15.21;61.31;100772.72;5064330;28;20049;-59
2022/09/01 06:20:51;;;;;;;7.88;3.45;;;;;;;15.22;61.18;100779.97;5059722;28;20060;-60
2022/09/01 06:23:18;;;;;;;4.40;2.90;;;;;;;15.32;61.01;100778.75;5050101;28;20057;-60
2022/09/01 06:25:47;;;;;;;4.75;2.80;;;;;;;15.36;61.14;100777.72;5052215;28;20148;-60
2022/09/01 06:28:15;;;;;;;4.57;2.65;;;;;;;15.41;61.26;100777.56;5053727;28;20053;-60
2022/09/01 06:30:43;;;;;;;4.18;2.63;;;;;;;15.52;61.29;100782.78;5051047;28;20091;-60
2022/09/01 06:33:12;;;;;;;7.03;2.65;;;;;;;15.65;60.86;100786.47;5053409;28;20045;-60
2022/09/01 06:35:40;;;;;;;4.10;2.60;;;;;;;15.72;60.53;100786.78;5051127;28;20397;-60
2022/09/01 06:38:10;;;;;;;6.13;2.70;;;;;;;15.83;60.39;100786.03;5055036;28;20415;-60
2022/09/01 06:40:39;;;;;;;5.75;2.60;;;;;;;15.90;60.30;100787.47;5052330;28;20431;-61
2022/09/01 06:43:07;;;;;;;4.38;2.28;;;;;;;15.97;60.24;100791.38;5049579;28;20060;-60
2022/09/01 06:45:40;;;;;;;3.97;3.03;;;;;;;16.09;60.09;100790.63;5049439;28;20387;-60
2022/09/01 06:48:15;;;;;;;5.10;2.55;;;;;;;16.22;59.84;100778.25;5048501;28;20513;-59
2022/09/01 06:50:44;;;;;;;5.75;2.85;;;;;;;16.32;59.85;100791.06;5049810;28;20433;-61
2022/09/01 06:53:15;;;;;;;4.57;2.40;;;;;;;16.49;59.12;100787.25;5046618;28;20435;-60
2022/09/01 06:55:42;;;;;;;7.53;3.85;;;;;;;16.62;59.13;100796.53;5046267;28;20481;-60
2022/09/01 06:58:14;;;;;;;13.38;6.85;;;;;;;16.77;58.33;100781.81;5047804;28;20060;-60
2022/09/01 07:00:42;;;;;;;11.32;3.47;;;;;;;16.88;57.70;100792.63;5047860;28;20060;-60
2022/09/01 07:03:12;;;;;;;4.45;2.60;;;;;;;16.97;57.63;100785.75;5048416;28;20477;-59
2022/09/01 07:05:41;;;;;;;5.32;2.72;;;;;;;17.10;57.44;100788.56;5047589;28;20642;-60
2022/09/01 07:08:12;;;;;;;3.13;2.30;;;;;;;17.26;57.17;100786.69;5046848;28;20057;-60
2022/09/01 07:10:45;;;;;;;3.78;2.25;;;;;;;17.38;56.61;100792.31;5046483;28;20052;-57
2022/09/01 07:13:16;;;;;;;4.90;2.30;;;;;;;17.52;56.47;100785.50;5047859;28;20072;-60
2022/09/01 07:15:46;;;;;;;3.97;2.17;;;;;;;17.65;55.86;100782.28;5043877;28;20048;-61
2022/09/01 07:18:13;;;;;;;4.28;2.20;;;;;;;17.81;55.47;100790.84;5051696;28;20064;-61
2022/09/01 07:20:41;;;;;;;4.63;2.10;;;;;;;18.02;54.80;100779.41;5049909;28;20428;-61
2022/09/01 07:23:10;;;;;;;7.30;2.15;;;;;;;18.49;53.50;100788.38;5048803;28;20512;-60
2022/09/01 07:25:40;;;;;;;4.13;2.13;;;;;;;19.40;51.36;100779.88;5051215;28;20494;-61
2022/09/01 07:28:09;;;;;;;4.07;1.98;;;;;;;20.72;47.73;100775.41;5051244;28;20067;-60
2022/09/01 07:30:42;;;;;;;3.03;1.70;;;;;;;22.10;45.73;100766.63;5047618;28;20064;-60
2022/09/01 07:33:11;;;;;;;4.53;1.85;;;;;;;23.42;42.96;100772.03;5040346;28;20053;-59
2022/09/01 07:35:40;;;;;;;8.15;2.03;;;;;;;24.84;39.61;100767.38;5047070;28;20056;-59
2022/09/01 07:38:08;;;;;;;7.32;1.55;;;;;;;26.04;36.79;100769.72;5047593;28;20064;-59
2022/09/01 07:40:38;;;;;;;4.35;1.88;;;;;;;27.47;33.96;100764.31;5047544;28;20490;-59
2022/09/01 07:43:10;;;;;;;6.25;1.70;;;;;;;28.65;31.56;100764.94;5046321;28;20052;-60
2022/09/01 07:45:37;;;;;;;3.30;1.40;;;;;;;30.15;29.47;100762.28;5045993;28;20059;-60
2022/09/01 07:48:07;;;;;;;3.08;1.40;;;;;;;30.63;28.51;100759.19;5045703;28;20490;-60
2022/09/01 07:50:36;;;;;;;2.60;1.20;;;;;;;31.89;26.07;100757.59;5046442;28;20076;-60
2022/09/01 07:53:04;;;;;;;2.67;1.20;;;;;;;32.79;24.09;100745.44;5046284;28;20112;-59
2022/09/01 07:55:33;;;;;;;2.20;1.17;;;;;;;33.29;23.95;100756.13;5048526;28;20417;-58
2022/09/01 07:58:00;;;;;;;2.60;1.45;;;;;;;33.61;22.74;100750.53;5054003;28;20049;-59
2022/09/01 08:00:30;;;;;;;4.88;1.15;;;;;;;34.90;21.80;100752.16;5051906;28;20064;-60
2022/09/01 08:02:57;;;;;;;3.25;1.20;;;;;;;35.53;21.05;100749.88;5045610;28;20087;-58
2022/09/01 08:05:25;;;;;;;4.25;1.40;;;;;;;34.67;20.46;100753.53;5052029;28;20045;-59
2022/09/01 08:07:53;;;;;;;2.33;1.20;;;;;;;35.20;20.79;100748.88;5048092;28;20477;-59
2022/09/01 08:10:22;;;;;;;5.43;1.83;;;;;;;36.00;20.00;100741.19;5050300;28;20057;-58
2022/09/01 08:12:49;;;;;;;;;;;;;;;36.74;18.84;100738.91;5048521;28;20049;-60
2022/09/01 08:15:16;;;;;;;3.95;1.50;;;;;;;37.71;18.78;100746.38;5053222;28;19921;-60
2022/09/01 08:17:45;;;;;;;4.90;1.35;;;;;;;38.73;18.04;100746.13;5050975;28;20052;-59
2022/09/01 08:20:13;;;;;;;2.22;1.25;;;;;;;39.31;16.78;100749.38;5050355;28;20053;-59
2022/09/01 08:22:40;;;;;;;4.63;1.50;;;;;;;40.14;16.13;100750.88;5048411;28;20497;-60
2022/09/01 08:25:09;;;;;;;3.05;1.30;;;;;;;40.55;15.34;100727.41;5049304;28;20532;-59
2022/09/01 08:27:38;;;;;;;2.25;1.00;;;;;;;41.33;14.93;100737.22;5049706;28;20067;-59
2022/09/01 08:30:08;;;;;;;3.53;1.40;;;;;;;42.31;14.35;100740.69;5049775;28;20056;-60
2022/09/01 08:32:37;;;;;;;3.22;1.35;;;;;;;43.21;13.75;100731.00;5050681;28;20509;-60
2022/09/01 08:35:07;;;;;;;2.22;1.10;;;;;;;43.49;13.76;100740.50;5050621;28;20060;-59
2022/09/01 08:37:34;;;;;;;1.92;1.20;;;;;;;44.04;12.96;100751.66;5050153;28;20063;-60
2022/09/01 08:40:01;;;;;;;3.33;1.20;;;;;;;44.20;12.71;100738.25;5051146;28;20406;-59
2022/09/01 08:42:43;;;;;;;3.25;1.20;;;;;;;45.01;11.99;100744.47;5053676;28;20044;-60
2022/09/01 08:45:18;;;;;;;2.72;1.50;;;;;;;45.08;11.95;100746.78;5055795;28;20056;-58
2022/09/01 08:47:48;;;;;;;2.00;1.13;;;;;;;45.61;11.96;100740.53;5050684;28;20048;-58
2022/09/01 08:50:19;;;;;;;3.05;1.58;;;;;;;46.66;11.10;100732.75;5050760;28;20528;-60
2022/09/01 08:52:54;;;;;;;2.83;1.40;;;;;;;46.46;11.19;100730.47;5051350;28;20413;-58
2022/09/01 08:55:26;;;;;;;2.83;1.52;;;;;;;47.12;11.04;100721.69;5048323;28;20048;-58
2022/09/01 08:57:56;;;;;;;2.53;1.48;;;;;;;46.97;11.02;100721.47;5045609;28;20057;-58
2022/09/01 09:00:25;;;;;;;2.00;1.23;;;;;;;47.54;10.66;100727.03;5052001;28;20041;-58
2022/09/01 09:03:06;;;;;;;3.65;1.58;;;;;;;47.72;10.37;100719.38;5051723;28;20063;-58
2022/09/01 09:05:54;;;;;;;4.05;1.63;;;;;;;48.26;10.20;100720.78;5045733;28;20488;-59
2022/09/01 09:08:48;;;;;;;2.97;1.50;;;;;;;48.86;9.98;100718.13;5048432;28;20049;-58
2022/09/01 09:11:39;;;;;;;3.85;1.50;;;;;;;48.94;9.57;100718.97;5043098;28;20053;-58
2022/09/01 09:14:14;;;;;;;3.95;1.77;;;;;;;48.44;10.03;100716.00;5049626;28;20056;-58
2022/09/01 09:16:45;;;;;;;3.75;1.42;;;;;;;47.03;10.51;100718.41;5049162;28;20056;-57
2022/09/01 09:19:20;;;;;;;3.03;1.40;;;;;;;46.33;11.03;100720.19;5047487;28;20048;-58
2022/09/01 09:21:51;;;;;;;3.75;1.45;;;;;;;47.20;10.70;100715.94;5041208;28;20049;-60
2022/09/01 09:24:26;;;;;;;1.80;1.40;;;;;;;48.00;9.95;100709.06;5044888;28;20071;-57
2022/09/01 09:26:56;;;;;;;2.33;1.33;;;;;;;48.32;10.24;100709.63;5058422;28;20049;-57
2022/09/01 09:29:23;;;;;;;2.92;1.00;;;;;;;47.83;10.17;100713.19;5047958;28;20052;-58
2022/09/01 09:32:01;;;;;;;;;;;;;;;47.03;10.81;100707.41;5049106;28;20064;-58
2022/09/01 09:34:35;;;;;;;4.00;1.60;;;;;;;47.30;10.57;100698.56;5049983;28;19929;-58
2022/09/01 09:37:22;;;;;;;2.38;1.30;;;;;;;47.32;10.37;100705.47;5049769;28;20049;-58
2022/09/01 09:40:09;;;;;;;3.78;1.40;;;;;;;48.01;10.45;100701.78;5045581;28;20045;-59
2022/09/01 09:42:38;;;;;;;3.28;1.42;;;;;;;46.85;10.48;100696.50;5049540;28;20393;-61
2022/09/01 09:45:18;;;;;;;3.63;1.45;;;;;;;47.64;10.38;100689.75;5050061;28;20060;-58
2022/09/01 09:47:46;;;;;;;4.18;1.88;;;;;;;47.37;10.32;100694.91;5048098;28;20413;-58
2022/09/01 09:50:21;;;;;;;2.65;1.30;;;;;;;47.80;10.23;100689.91;5049771;28;20052;-58
2022/09/01 09:52:52;;;;;;;2.80;1.30;;;;;;;48.46;10.16;100680.75;5049625;28;20057;-58
2022/09/01 09:55:26;;;;;;;2.05;1.23;;;;;;;49.43;9.62;100682.56;5048181;28;20044;-58
2022/09/01 09:57:58;;;;;;;2.20;1.00;;;;;;;48.06;10.00;100683.13;5049109;28;20073;-61
2022/09/01 10:00:27;;;;;;;3.50;1.52;;;;;;;47.40;10.23;100681.97;5050614;28;20052;-58
2022/09/01 10:03:00;;;;;;;4.10;1.60;;;;;;;47.90;10.28;100674.13;5048987;28;20052;-58
2022/09/01 10:05:39;;;;;;;1.90;1.30;;;;;;;48.23;10.02;100677.56;5050182;28;20049;-58
2022/09/01 10:08:11;;;;;;;1.95;1.17;;;;;;;47.85;10.06;100669.13;5047853;28;20049;-58
2022/09/01 10:10:41;;;;;;;3.95;1.63;;;;;;;48.45;9.56;100669.50;5048431;28;20497;-58
2022/09/01 10:13:12;;;;;;;3.72;1.70;;;;;;;48.42;9.98;100667.72;5046420;28;20053;-58
2022/09/01 10:15:44;;;;;;;1.77;1.30;;;;;;;48.32;9.67;100668.25;5050150;28;20053;-58
2022/09/01 10:18:15;;;;;;;2.50;1.20;;;;;;;47.62;10.26;100657.06;5048922;28;20686;-59
2022/09/01 10:20:48;;;;;;;4.22;1.42;;;;;;;47.31;10.48;100667.69;5050102;28;20409;-58
2022/09/01 10:23:17;;;;;;;2.20;1.40;;;;;;;47.33;10.17;100648.03;5048320;28;20403;-59
2022/09/01 10:25:45;;;;;;;5.82;1.63;;;;;;;48.41;9.34;100648.38;5048331;28;20060;-60
2022/09/01 10:28:18;;;;;;;3.10;1.60;;;;;;;48.87;8.97;100648.72;5048767;28;20049;-58
2022/09/01 10:30:47;;;;;;;2.60;1.30;;;;;;;49.36;8.98;100647.81;5045258;28;20049;-58
2022/09/01 10:33:17;;;;;;;4.25;1.15;;;;;;;49.27;9.27;100645.38;5043947;28;20863;-59
2022/09/01 10:35:47;;;;;;;3.15;1.23;;;;;;;46.73;10.58;100643.66;5047798;28;20084;-59
2022/09/01 10:38:19;;;;;;;2.45;1.50;;;;;;;47.69;9.73;100634.88;5047349;28;20052;-59
2022/09/01 10:41:05;;;;;;;2.70;1.50;;;;;;;47.62;9.10;100639.34;5047888;28;20049;-59
2022/09/01 10:43:37;;;;;;;3.63;1.30;;;;;;;47.22;9.71;100636.50;5045418;28;20057;-59
2022/09/01 10:46:33;;;;;;;2.95;1.10;;;;;;;45.27;10.88;100634.31;5050328;28;20052;-58
2022/09/01 10:49:00;;;;;;;1.95;1.13;;;;;;;42.65;12.18;100650.69;5049838;28;20053;-58
2022/09/01 10:51:45;;;;;;;3.20;1.40;;;;;;;43.31;11.63;100645.16;5050687;28;20052;-58
2022/09/01 10:54:53;;;;;;;3.38;1.40;;;;;;;44.98;11.19;100627.97;5051711;28;20481;-59
2022/09/01 10:57:37;;;;;;;3.05;1.40;;;;;;;46.12;10.69;100630.88;5043599;28;20414;-58
2022/09/01 11:01:01;;;;;;;3.03;1.70;;;;;;;45.14;10.91;100629.09;5051849;28;20068;-59
2022/09/01 11:04:01;;;;;;;3.78;1.55;;;;;;;44.72;10.85;100622.66;5028551;28;20053;-60
2022/09/01 11:07:07;;;;;;;1.83;1.10;;;;;;;43.39;12.04;100642.44;5048893;28;20041;-58
2022/09/01 11:09:38;;;;;;;3.50;1.70;;;;;;;42.62;12.75;100633.38;5043356;28;20049;-59
2022/09/01 11:12:40;;;;;;;3.60;1.77;;;;;;;43.77;12.31;100625.16;5051441;28;20048;-59
2022/09/01 11:15:37;;;;;;;5.97;1.65;;;;;;;43.30;11.88;100633.94;5054656;28;20079;-59
2022/09/01 11:18:11;;;;;;;2.45;1.30;;;;;;;44.24;11.53;100639.69;5054229;28;20052;-59
2022/09/01 11:20:40;;;;;;;2.47;1.20;;;;;;;45.34;11.18;100625.63;5060035;28;20049;-59
2022/09/01 11:23:12;;;;;;;2.53;1.17;;;;;;;45.75;10.93;100633.31;5041105;28;20064;-59
2022/09/01 11:25:43;;;;;;;2.83;1.60;;;;;;;44.81;11.36;100624.41;5051218;28;20057;-58
2022/09/01 11:28:41;;;;;;;2.47;1.17;;;;;;;43.57;11.83;100629.25;5051785;28;20052;-57
2022/09/01 11:31:22;;;;;;;2.15;1.38;;;;;;;44.95;11.07;100621.06;5052548;28;20072;-59
2022/09/01 11:34:02;;;;;;;5.70;2.00;;;;;;;45.65;10.50;100617.44;5051721;28;20049;-59
2022/09/01 11:36:34;;;;;;;1.23;1.00;;;;;;;42.71;12.00;100624.28;5046316;28;20045;-58
2022/09/01 11:39:21;;;;;;;2.47;0.90;;;;;;;41.48;12.65;100629.59;5052082;28;20053;-58
2022/09/01 11:41:55;;;;;;;1.73;1.30;;;;;;;41.91;13.19;100629.41;5053679;28;20048;-58
2022/09/01 11:44:26;;;;;;;13.63;2.53;;;;;;;42.10;12.48;100620.91;5047829;28;20056;-59
2022/09/01 11:46:59;;;;;;;2.05;1.20;;;;;;;42.92;12.44;100628.50;5048307;28;20060;-58
2022/09/01 11:49:30;;;;;;;1.60;1.02;;;;;;;43.53;11.64;100629.53;5058467;28;20053;-60